createdAt,value
2018-11-02T00:00:53.516Z,10.80
2018-11-02T00:05:58.702Z,11.97
2018-11-02T00:11:18.983Z,9.83
2018-11-02T00:16:24.192Z,15.07
2018-11-02T00:21:28.740Z,14.00
2018-11-02T00:26:33.271Z,13.87
2018-11-02T00:31:38.369Z,12.53
2018-11-02T00:36:42.781Z,12.47
2018-11-02T00:41:47.051Z,11.43
2018-11-02T00:46:51.293Z,10.93
2018-11-02T00:51:56.355Z,11.60
2018-11-02T00:57:00.816Z,11.53
2018-11-02T01:02:05.693Z,12.82
2018-11-02T01:07:09.964Z,10.95
2018-11-02T01:12:14.625Z,12.18
2018-11-02T01:17:19.246Z,12.37
2018-11-02T01:22:23.803Z,9.40
2018-11-02T01:27:28.303Z,10.10
2018-11-02T01:32:33.065Z,8.63
2018-11-02T01:37:37.237Z,10.37
2018-11-02T01:42:41.741Z,11.25
2018-11-02T01:47:45.964Z,9.00
2018-11-02T01:52:50.166Z,9.88
2018-11-02T01:57:54.364Z,11.68
2018-11-02T02:02:58.648Z,9.73
2018-11-02T02:08:03.911Z,9.53
2018-11-02T02:13:08.507Z,12.33
2018-11-02T02:18:12.836Z,10.98
2018-11-02T02:23:17.477Z,10.77
2018-11-02T02:28:21.784Z,9.15
2018-11-02T02:33:26.197Z,9.40
2018-11-02T02:38:30.192Z,11.23
2018-11-02T02:43:34.788Z,16.12
2018-11-02T02:48:39.600Z,10.07
2018-11-02T02:53:43.836Z,8.95
2018-11-02T02:58:48.412Z,12.07
2018-11-02T03:03:53.353Z,10.23
2018-11-02T03:08:59.768Z,10.43
2018-11-02T03:14:04.850Z,12.50
2018-11-02T03:19:09.365Z,9.00
2018-11-02T03:24:13.828Z,8.77
2018-11-02T03:29:18.956Z,9.85
2018-11-02T03:34:23.796Z,9.47
2018-11-02T03:39:28.279Z,9.73
2018-11-02T03:44:32.370Z,8.03
2018-11-02T03:49:36.964Z,11.08
2018-11-02T03:54:41.528Z,10.63
2018-11-02T03:59:45.948Z,8.10
2018-11-02T04:04:50.223Z,11.57
2018-11-02T04:09:54.435Z,8.73
2018-11-02T04:14:58.926Z,10.40
2018-11-02T04:20:03.470Z,9.47
2018-11-02T04:25:08.263Z,8.43
2018-11-02T04:30:13.174Z,9.73
2018-11-02T04:35:17.873Z,8.45
2018-11-02T04:40:22.591Z,7.93
2018-11-02T04:45:32.432Z,12.20
2018-11-02T04:50:36.864Z,8.45
2018-11-02T04:55:41.439Z,8.43
2018-11-02T05:00:45.723Z,8.23
2018-11-02T05:05:50.181Z,7.23
2018-11-02T05:10:55.722Z,7.95
2018-11-02T05:16:00.093Z,10.57
2018-11-02T05:21:04.834Z,8.20
2018-11-02T05:26:09.491Z,8.00
2018-11-02T05:31:14.297Z,8.03
2018-11-02T05:36:18.445Z,11.17
2018-11-02T05:41:22.645Z,7.37
2018-11-02T05:46:27.412Z,15.17
2018-11-02T05:51:32.095Z,11.53
2018-11-02T05:56:36.227Z,11.43
2018-11-02T06:01:40.842Z,15.27
2018-11-02T06:06:45.852Z,9.13
2018-11-02T06:11:54.330Z,11.28
2018-11-02T06:16:58.510Z,8.60
2018-11-02T06:22:03.458Z,8.60
2018-11-02T06:27:07.906Z,8.88
2018-11-02T06:32:12.380Z,9.00
2018-11-02T06:37:17.233Z,9.80
2018-11-02T06:42:21.657Z,16.33
2018-11-02T06:47:26.682Z,13.60
2018-11-02T06:52:30.882Z,13.57
2018-11-02T06:57:35.629Z,13.87
2018-11-02T07:02:40.610Z,8.63
2018-11-02T07:07:44.918Z,12.05
2018-11-02T07:12:49.594Z,10.57
2018-11-02T07:17:54.062Z,11.60
2018-11-02T07:22:58.552Z,10.03
2018-11-02T07:28:03.287Z,8.43
2018-11-02T07:33:07.470Z,10.03
2018-11-02T07:38:12.468Z,9.30
2018-11-02T07:43:16.701Z,7.87
2018-11-02T07:48:20.897Z,12.88
2018-11-02T07:53:25.441Z,7.75
2018-11-02T07:58:29.928Z,9.07
2018-11-02T08:03:34.859Z,7.30
2018-11-02T08:08:47.981Z,9.93
2018-11-02T08:13:54.178Z,9.93
2018-11-02T08:18:58.754Z,8.50
2018-11-02T08:24:03.837Z,7.42
2018-11-02T08:29:08.607Z,7.00
2018-11-02T08:34:13.029Z,8.80
2018-11-02T08:39:17.118Z,10.70
2018-11-02T08:44:21.241Z,9.63
2018-11-02T08:49:25.342Z,9.00
2018-11-02T08:54:30.048Z,8.80
2018-11-02T08:59:34.620Z,7.30
2018-11-02T09:04:39.324Z,8.37
2018-11-02T09:09:44.114Z,9.10
2018-11-02T09:14:49.538Z,8.00
2018-11-02T09:19:54.300Z,11.37
2018-11-02T09:24:58.902Z,8.63
2018-11-02T09:30:03.348Z,11.27
2018-11-02T09:35:07.514Z,8.37
2018-11-02T09:40:12.611Z,9.77
2018-11-02T09:45:17.297Z,7.63
2018-11-02T09:50:21.603Z,7.87
2018-11-02T09:55:26.592Z,8.38
2018-11-02T10:00:31.625Z,6.60
2018-11-02T10:05:36.453Z,5.87
2018-11-02T10:10:41.085Z,5.83
2018-11-02T10:15:45.720Z,6.60
2018-11-02T10:20:50.167Z,6.90
2018-11-02T10:25:54.236Z,6.67
2018-11-02T10:30:58.516Z,5.17
2018-11-02T10:36:03.148Z,5.17
2018-11-02T10:41:08.151Z,5.53
2018-11-02T10:46:12.424Z,6.57
2018-11-02T10:51:16.911Z,6.57
2018-11-02T10:56:21.546Z,5.77
2018-11-02T11:01:31.775Z,5.73
2018-11-02T11:06:36.559Z,6.87
2018-11-02T11:11:42.574Z,8.53
2018-11-02T11:16:47.440Z,7.05
2018-11-02T11:21:52.081Z,6.30
2018-11-02T11:26:57.880Z,6.22
2018-11-02T11:32:02.693Z,5.03
2018-11-02T11:37:07.058Z,9.07
2018-11-02T11:42:11.430Z,5.10
2018-11-02T11:47:16.095Z,5.62
2018-11-02T11:52:20.185Z,4.90
2018-11-02T11:57:25.148Z,3.83
2018-11-02T12:02:29.551Z,3.20
2018-11-02T12:07:34.041Z,5.20
2018-11-02T12:12:42.725Z,5.40
2018-11-02T12:17:47.951Z,5.07
2018-11-02T12:22:54.084Z,5.70
2018-11-02T12:27:58.802Z,9.53
2018-11-02T12:33:09.139Z,8.17
2018-11-02T12:38:13.855Z,6.17
2018-11-02T12:43:18.946Z,5.70
2018-11-02T12:48:23.448Z,5.67
2018-11-02T12:53:28.332Z,4.07
2018-11-02T12:58:33.207Z,5.33
2018-11-02T13:03:37.496Z,7.20
2018-11-02T13:08:41.856Z,6.77
2018-11-02T13:13:47.740Z,7.80
2018-11-02T13:18:52.187Z,6.08
2018-11-02T13:23:57.150Z,7.53
2018-11-02T13:29:01.592Z,5.77
2018-11-02T13:34:06.063Z,5.92
2018-11-02T13:39:12.162Z,5.30
2018-11-02T13:44:16.682Z,5.78
2018-11-02T13:49:21.511Z,4.60
2018-11-02T13:54:26.572Z,4.10
2018-11-02T13:59:31.162Z,6.30
2018-11-02T14:04:36.141Z,4.67
2018-11-02T14:09:40.433Z,4.78
2018-11-02T14:14:45.160Z,3.77
2018-11-02T14:19:49.583Z,5.13
2018-11-02T14:24:53.971Z,6.03
2018-11-02T14:29:58.409Z,4.22
2018-11-02T14:35:03.107Z,3.23
2018-11-02T14:40:08.047Z,6.03
2018-11-02T14:45:15.315Z,4.17
2018-11-02T14:50:20.069Z,7.62
2018-11-02T14:55:24.266Z,4.53
2018-11-02T15:00:28.655Z,3.53
2018-11-02T15:05:33.379Z,4.93
2018-11-02T15:10:37.732Z,3.43
2018-11-02T15:15:42.599Z,3.27
2018-11-02T15:20:47.004Z,8.87
2018-11-02T15:25:51.999Z,6.13
2018-11-02T15:30:56.739Z,3.67
2018-11-02T15:36:01.521Z,4.87
2018-11-02T15:41:06.377Z,5.07
2018-11-02T15:46:12.304Z,3.67
2018-11-02T15:51:17.375Z,4.13
2018-11-02T15:56:21.542Z,7.60
2018-11-02T16:01:25.887Z,3.85
2018-11-02T16:06:30.901Z,6.80
2018-11-02T16:11:35.622Z,4.60
2018-11-02T16:16:40.510Z,4.80
2018-11-02T16:21:45.491Z,5.77
2018-11-02T16:26:49.813Z,6.47
2018-11-02T16:31:54.470Z,6.22
2018-11-02T16:36:58.942Z,11.73
2018-11-02T16:42:03.724Z,15.70
2018-11-02T16:47:08.696Z,15.17
2018-11-02T16:52:13.206Z,18.53
2018-11-02T16:57:17.924Z,12.50
2018-11-02T17:02:22.812Z,9.25
2018-11-02T17:07:27.720Z,23.27
2018-11-02T17:12:32.711Z,10.00
2018-11-02T17:17:37.536Z,17.17
2018-11-02T17:22:42.160Z,18.60
2018-11-02T17:27:46.433Z,23.77
2018-11-02T17:32:50.889Z,15.57
2018-11-02T17:37:55.351Z,10.80
2018-11-02T17:42:59.829Z,11.70
2018-11-02T17:48:04.651Z,12.90
2018-11-02T17:53:08.803Z,13.15
2018-11-02T17:58:13.777Z,14.50
2018-11-02T18:03:18.377Z,11.70
2018-11-02T18:08:22.648Z,11.13
2018-11-02T18:13:26.969Z,11.97
2018-11-02T18:18:32.269Z,9.88
2018-11-02T18:23:36.644Z,14.53
2018-11-02T18:28:41.375Z,12.63
2018-11-02T18:33:45.854Z,10.32
2018-11-02T18:38:51.066Z,16.30
2018-11-02T18:43:55.519Z,13.17
2018-11-02T18:48:59.937Z,13.53
2018-11-02T18:54:04.525Z,19.80
2018-11-02T18:59:09.611Z,14.05
2018-11-02T19:04:14.325Z,14.17
2018-11-02T19:09:18.822Z,14.90
2018-11-02T19:14:23.281Z,13.60
2018-11-02T19:19:28.741Z,15.83
2018-11-02T19:24:34.460Z,16.42
2018-11-02T19:29:38.945Z,13.95
2018-11-02T19:34:43.716Z,15.93
2018-11-02T19:39:47.930Z,12.93
2018-11-02T19:44:52.071Z,19.98
2018-11-02T19:49:56.728Z,19.92
2018-11-02T19:55:01.505Z,23.25
2018-11-02T20:00:07.961Z,20.67
2018-11-02T20:05:14.478Z,21.00
2018-11-02T20:10:19.216Z,23.07
2018-11-02T20:15:23.601Z,19.00
2018-11-02T20:20:28.366Z,20.87
2018-11-02T20:25:32.836Z,17.23
2018-11-02T20:30:37.442Z,16.47
2018-11-02T20:35:41.889Z,19.50
2018-11-02T20:40:46.065Z,19.73
2018-11-02T20:45:50.221Z,18.67
2018-11-02T20:50:54.665Z,19.27
2018-11-02T20:55:59.137Z,17.27
2018-11-02T21:01:03.559Z,17.40
2018-11-02T21:06:08.219Z,21.40
2018-11-02T21:11:12.941Z,30.00
2018-11-02T21:16:18.230Z,27.27
2018-11-02T21:21:22.485Z,27.35
2018-11-02T21:26:26.885Z,27.87
2018-11-02T21:31:31.219Z,22.15
2018-11-02T21:36:36.259Z,19.85
2018-11-02T21:41:41.196Z,21.03
2018-11-02T21:46:45.374Z,24.95
2018-11-02T21:51:49.741Z,20.30
2018-11-02T21:56:53.955Z,23.53
2018-11-02T22:01:58.961Z,19.27
2018-11-02T22:07:03.358Z,17.57
2018-11-02T22:12:08.369Z,18.62
2018-11-02T22:17:17.153Z,17.67
2018-11-02T22:22:21.301Z,18.82
2018-11-02T22:27:26.150Z,16.60
2018-11-02T22:32:30.349Z,19.60
2018-11-02T22:37:34.747Z,17.70
2018-11-02T22:42:39.544Z,17.33
2018-11-02T22:47:49.973Z,21.80
2018-11-02T22:52:54.435Z,15.98
2018-11-02T22:57:58.879Z,18.25
2018-11-02T23:03:03.692Z,19.17
2018-11-02T23:08:08.311Z,17.67
2018-11-02T23:13:12.422Z,19.57
2018-11-02T23:18:16.796Z,16.87
2018-11-02T23:23:21.614Z,19.73
2018-11-02T23:28:26.361Z,19.10
2018-11-02T23:33:31.131Z,18.93
2018-11-02T23:38:36.182Z,17.93
2018-11-02T23:43:40.743Z,19.75
2018-11-02T23:48:45.336Z,19.93
2018-11-02T23:53:49.469Z,18.20
2018-11-02T23:58:54.097Z,20.20
